עמוד ראשי
METAR-TAF:

METAR-TAF

שדות תעופה :

קורדובה, ארגנטינה

קו רוחב: 31-19S, קו אורך: 064-13W, גובה: 484מטר

תצפית מזג אוויר נוכחית

הדו"ח נערך לפני 1 שעות ו 9דקות, בשעה 08:00 UTC
רוח 4קשר מכיוון צפון-מערב
טמפרטורת -2 צלסיוס
לחות 93%
לחץ 1026 hPa
ראות 10 קילומטר או יותר
ללא עננים שבסיסם נמוך מ 5000 רגל או קומולונימבוס

METAR: SACO 270800Z 32004KT CAVOK M02/M03 Q1026 NOSIG

זמן: 06:09 (09:09 UTC)

תחזית

הדו"ח נערך לפני 4 שעות ו 9דקות, בשעה 05:00 UTC
תחזית בתוקף מ 27 ב 06 UTC עד 28 ב 06 UTC
רוח 2קשר עם כיוונים משתנים
ראות 10 קילומטר או יותר
עננים פזורים בגובה 4000רגל
יעשה מ
27 ב 06 UTC עד 27 ב 09 UTC
רוח 5קשר מכיוון צפון/צפון-מערב
ראות 10 קילומטר או יותר
מעט עננים בגובה 3000רגל
יעשה מ
27 ב 12 UTC עד 27 ב 15 UTC
רוח 5קשר מכיוון דרום/דרום-מזרח
ראות 10 קילומטר או יותר
ללא עננים שבסיסם נמוך מ 5000 רגל או קומולונימבוס
יעשה מ
28 ב 00 UTC עד 28 ב 03 UTC
רוח 5קשר מכיוון צפון

TAF: SACO 270500Z 2706/2806 VRB02KT 9999 SCT040 TX12/2718Z TNM01/2711Z BECMG 2706/2709 34005KT 9999 FEW030 BECMG 2712/2715 16005KT CAVOK BECMG 2800/2803 36005KT

תצפיות ותחזיות מזג אוויר לגבי יותר מ- 4,000 שדות תעופה ברחבי העולם. דוחות METAR ו- TAF.

התחנות הזמינות מסומנות בנקודות צהובות ואדומות על גבי המפה.

העבר את העכבר לנקודה הצבעונית על מנת לראות את שם התחנה.

לאחר מכן, לחץ כדי לראות את תוכן ואת תחזיות מזג האוויר.

כדי לשנות את המפה: לחץ על הכפתורים הירוקים עם הפלוס השחור כדי להתקרב; על הכפתור הירוק עם המקף כדי להתרחק; או בחיצים הירוקים למפות סמוכות.


METAR-TAF: